sensor_id;sensor_type;location;lat;lon;timestamp;pressure;altitude;pressure_sealevel;temperature;humidity
40245;BME280;25963;42.694;23.600;2023-03-09T00:01:24;94639.09;;;3.67;97.15
40245;BME280;25963;42.694;23.600;2023-03-09T00:03:51;94630.91;;;3.49;98.10
40245;BME280;25963;42.694;23.600;2023-03-09T00:06:17;94646.31;;;3.65;97.67
40245;BME280;25963;42.694;23.600;2023-03-09T00:08:42;94639.09;;;3.25;100.00
40245;BME280;25963;42.694;23.600;2023-03-09T00:11:08;94635.63;;;3.39;100.00
40245;BME280;25963;42.694;23.600;2023-03-09T00:13:34;94632.03;;;3.40;99.92
40245;BME280;25963;42.694;23.600;2023-03-09T00:18:39;94622.41;;;3.40;99.38
40245;BME280;25963;42.694;23.600;2023-03-09T00:21:05;94623.53;;;3.31;99.88
40245;BME280;25963;42.694;23.600;2023-03-09T00:23:31;94621.97;;;3.37;100.00
40245;BME280;25963;42.694;23.600;2023-03-09T00:26:04;94624.22;;;3.40;98.79
40245;BME280;25963;42.694;23.600;2023-03-09T00:28:30;94623.88;;;3.28;99.46
40245;BME280;25963;42.694;23.600;2023-03-09T00:31:01;94622.13;;;3.14;100.00
40245;BME280;25963;42.694;23.600;2023-03-09T00:33:26;94608.19;;;3.22;100.00
40245;BME280;25963;42.694;23.600;2023-03-09T00:35:51;94609.00;;;3.22;100.00
40245;BME280;25963;42.694;23.600;2023-03-09T00:38:17;94611.97;;;3.19;100.00
40245;BME280;25963;42.694;23.600;2023-03-09T00:40:42;94607.22;;;3.08;100.00
40245;BME280;25963;42.694;23.600;2023-03-09T00:43:08;94609.22;;;3.06;100.00
40245;BME280;25963;42.694;23.600;2023-03-09T00:45:33;94601.91;;;3.16;100.00
40245;BME280;25963;42.694;23.600;2023-03-09T00:47:58;94607.81;;;3.25;100.00
40245;BME280;25963;42.694;23.600;2023-03-09T00:50:24;94592.81;;;3.27;100.00
40245;BME280;25963;42.694;23.600;2023-03-09T00:52:49;94592.44;;;3.08;100.00
40245;BME280;25963;42.694;23.600;2023-03-09T00:55:15;94596.53;;;3.17;100.00
40245;BME280;25963;42.694;23.600;2023-03-09T00:57:40;94593.66;;;3.12;100.00
40245;BME280;25963;42.694;23.600;2023-03-09T01:00:06;94592.28;;;2.95;100.00
40245;BME280;25963;42.694;23.600;2023-03-09T01:02:32;94591.78;;;2.85;100.00
40245;BME280;25963;42.694;23.600;2023-03-09T01:04:57;94582.38;;;3.05;100.00
40245;BME280;25963;42.694;23.600;2023-03-09T01:07:23;94583.03;;;2.92;100.00
40245;BME280;25963;42.694;23.600;2023-03-09T01:09:48;94577.06;;;2.98;100.00
40245;BME280;25963;42.694;23.600;2023-03-09T01:12:14;94585.47;;;2.94;100.00
40245;BME280;25963;42.694;23.600;2023-03-09T01:14:39;94584.56;;;2.87;100.00
40245;BME280;25963;42.694;23.600;2023-03-09T01:17:05;94578.41;;;2.73;100.00
40245;BME280;25963;42.694;23.600;2023-03-09T01:19:30;94581.69;;;2.96;100.00
40245;BME280;25963;42.694;23.600;2023-03-09T01:21:56;94579.69;;;2.98;100.00
40245;BME280;25963;42.694;23.600;2023-03-09T01:24:21;94564.03;;;2.98;100.00
40245;BME280;25963;42.694;23.600;2023-03-09T01:26:47;94565.09;;;3.04;100.00
40245;BME280;25963;42.694;23.600;2023-03-09T01:29:12;94557.78;;;2.93;100.00
40245;BME280;25963;42.694;23.600;2023-03-09T01:31:38;94552.88;;;3.05;100.00
40245;BME280;25963;42.694;23.600;2023-03-09T01:34:03;94552.72;;;3.06;100.00
40245;BME280;25963;42.694;23.600;2023-03-09T01:36:29;94560.91;;;3.03;100.00
40245;BME280;25963;42.694;23.600;2023-03-09T01:38:54;94552.50;;;3.08;100.00
40245;BME280;25963;42.694;23.600;2023-03-09T01:41:21;94558.25;;;3.18;100.00
40245;BME280;25963;42.694;23.600;2023-03-09T01:43:49;94563.50;;;3.03;100.00
40245;BME280;25963;42.694;23.600;2023-03-09T01:51:41;94542.34;;;3.13;100.00
40245;BME280;25963;42.694;23.600;2023-03-09T01:54:14;94532.34;;;3.16;100.00
40245;BME280;25963;42.694;23.600;2023-03-09T01:56:42;94541.34;;;3.14;100.00
40245;BME280;25963;42.694;23.600;2023-03-09T01:59:10;94535.16;;;3.15;100.00
40245;BME280;25963;42.694;23.600;2023-03-09T02:01:37;94536.50;;;3.11;100.00
40245;BME280;25963;42.694;23.600;2023-03-09T02:04:08;94542.91;;;3.08;100.00
40245;BME280;25963;42.694;23.600;2023-03-09T02:06:35;94534.09;;;3.09;100.00
40245;BME280;25963;42.694;23.600;2023-03-09T02:11:33;94515.72;;;3.17;100.00
40245;BME280;25963;42.694;23.600;2023-03-09T02:14:00;94523.34;;;3.19;100.00
40245;BME280;25963;42.694;23.600;2023-03-09T02:16:25;94531.72;;;2.93;100.00
40245;BME280;25963;42.694;23.600;2023-03-09T02:18:52;94525.09;;;2.90;100.00
40245;BME280;25963;42.694;23.600;2023-03-09T02:24:23;94551.63;;;2.79;100.00
40245;BME280;25963;42.694;23.600;2023-03-09T02:26:56;94541.41;;;2.63;100.00
40245;BME280;25963;42.694;23.600;2023-03-09T02:29:23;94535.84;;;2.66;100.00
40245;BME280;25963;42.694;23.600;2023-03-09T02:31:49;94543.38;;;2.76;100.00
40245;BME280;25963;42.694;23.600;2023-03-09T02:34:14;94543.84;;;2.64;100.00
40245;BME280;25963;42.694;23.600;2023-03-09T02:36:40;94552.91;;;2.68;100.00
40245;BME280;25963;42.694;23.600;2023-03-09T02:39:30;94562.34;;;2.69;100.00
40245;BME280;25963;42.694;23.600;2023-03-09T02:42:01;94562.25;;;2.63;100.00
40245;BME280;25963;42.694;23.600;2023-03-09T02:44:27;94561.88;;;2.66;100.00
40245;BME280;25963;42.694;23.600;2023-03-09T02:46:52;94567.03;;;2.59;100.00
40245;BME280;25963;42.694;23.600;2023-03-09T02:49:18;94560.47;;;2.63;100.00
40245;BME280;25963;42.694;23.600;2023-03-09T02:51:43;94561.38;;;2.56;100.00
40245;BME280;25963;42.694;23.600;2023-03-09T02:54:09;94560.38;;;2.57;100.00
40245;BME280;25963;42.694;23.600;2023-03-09T02:56:34;94568.38;;;2.55;100.00
40245;BME280;25963;42.694;23.600;2023-03-09T02:59:00;94564.88;;;2.48;100.00
40245;BME280;25963;42.694;23.600;2023-03-09T03:01:27;94558.28;;;2.31;100.00
40245;BME280;25963;42.694;23.600;2023-03-09T03:03:53;94560.53;;;2.34;100.00
40245;BME280;25963;42.694;23.600;2023-03-09T03:06:18;94558.44;;;2.44;100.00
40245;BME280;25963;42.694;23.600;2023-03-09T03:08:44;94559.22;;;2.44;100.00
40245;BME280;25963;42.694;23.600;2023-03-09T03:11:09;94550.09;;;2.48;100.00
40245;BME280;25963;42.694;23.600;2023-03-09T03:13:35;94549.88;;;2.50;100.00
40245;BME280;25963;42.694;23.600;2023-03-09T03:16:01;94547.66;;;2.47;100.00
40245;BME280;25963;42.694;23.600;2023-03-09T03:18:27;94544.06;;;2.33;100.00
40245;BME280;25963;42.694;23.600;2023-03-09T03:20:53;94560.41;;;2.42;100.00
40245;BME280;25963;42.694;23.600;2023-03-09T03:23:19;94568.13;;;2.20;100.00
40245;BME280;25963;42.694;23.600;2023-03-09T03:25:44;94571.19;;;2.09;100.00
40245;BME280;25963;42.694;23.600;2023-03-09T03:28:09;94583.47;;;2.15;100.00
40245;BME280;25963;42.694;23.600;2023-03-09T03:30:35;94578.47;;;2.14;100.00
40245;BME280;25963;42.694;23.600;2023-03-09T03:33:00;94575.50;;;2.17;100.00
40245;BME280;25963;42.694;23.600;2023-03-09T03:35:26;94555.50;;;2.17;100.00
40245;BME280;25963;42.694;23.600;2023-03-09T03:37:51;94560.78;;;2.24;100.00
40245;BME280;25963;42.694;23.600;2023-03-09T03:40:17;94562.94;;;2.05;100.00
40245;BME280;25963;42.694;23.600;2023-03-09T03:42:43;94573.94;;;1.78;100.00
40245;BME280;25963;42.694;23.600;2023-03-09T03:45:09;94578.88;;;1.88;100.00
40245;BME280;25963;42.694;23.600;2023-03-09T03:47:34;94582.28;;;1.88;100.00
40245;BME280;25963;42.694;23.600;2023-03-09T03:50:00;94573.41;;;1.97;100.00
40245;BME280;25963;42.694;23.600;2023-03-09T03:52:25;94578.81;;;2.11;100.00
40245;BME280;25963;42.694;23.600;2023-03-09T03:54:51;94570.09;;;2.18;100.00
40245;BME280;25963;42.694;23.600;2023-03-09T03:57:16;94574.25;;;2.42;100.00
40245;BME280;25963;42.694;23.600;2023-03-09T03:59:41;94573.06;;;2.45;100.00
40245;BME280;25963;42.694;23.600;2023-03-09T04:02:07;94584.91;;;2.47;100.00
40245;BME280;25963;42.694;23.600;2023-03-09T04:04:32;94573.59;;;2.55;100.00
40245;BME280;25963;42.694;23.600;2023-03-09T04:06:58;94560.28;;;2.65;100.00
40245;BME280;25963;42.694;23.600;2023-03-09T04:09:23;94559.19;;;2.74;100.00
40245;BME280;25963;42.694;23.600;2023-03-09T04:11:49;94569.22;;;2.77;100.00
40245;BME280;25963;42.694;23.600;2023-03-09T04:14:15;94562.53;;;2.89;100.00
40245;BME280;25963;42.694;23.600;2023-03-09T04:16:40;94561.44;;;2.98;100.00
40245;BME280;25963;42.694;23.600;2023-03-09T04:19:06;94559.28;;;3.02;100.00
40245;BME280;25963;42.694;23.600;2023-03-09T04:21:31;94553.09;;;3.03;100.00
40245;BME280;25963;42.694;23.600;2023-03-09T04:23:56;94557.72;;;3.08;100.00
40245;BME280;25963;42.694;23.600;2023-03-09T04:26:22;94558.91;;;3.05;100.00
40245;BME280;25963;42.694;23.600;2023-03-09T04:28:47;94544.16;;;3.12;100.00
40245;BME280;25963;42.694;23.600;2023-03-09T04:31:13;94549.16;;;3.14;100.00
40245;BME280;25963;42.694;23.600;2023-03-09T04:33:38;94548.97;;;3.15;100.00
40245;BME280;25963;42.694;23.600;2023-03-09T04:36:11;94547.81;;;3.18;100.00
40245;BME280;25963;42.694;23.600;2023-03-09T04:38:37;94544.88;;;3.28;100.00
40245;BME280;25963;42.694;23.600;2023-03-09T04:41:02;94547.13;;;3.31;100.00
40245;BME280;25963;42.694;23.600;2023-03-09T04:43:29;94553.72;;;3.27;100.00
40245;BME280;25963;42.694;23.600;2023-03-09T04:45:54;94555.00;;;3.16;100.00
40245;BME280;25963;42.694;23.600;2023-03-09T04:48:20;94535.16;;;3.15;100.00
40245;BME280;25963;42.694;23.600;2023-03-09T04:50:45;94538.13;;;3.12;100.00
40245;BME280;25963;42.694;23.600;2023-03-09T04:53:11;94538.31;;;3.10;100.00
40245;BME280;25963;42.694;23.600;2023-03-09T04:55:36;94533.09;;;3.10;100.00
40245;BME280;25963;42.694;23.600;2023-03-09T04:58:03;94535.59;;;3.18;100.00
40245;BME280;25963;42.694;23.600;2023-03-09T05:00:30;94523.59;;;3.24;100.00
40245;BME280;25963;42.694;23.600;2023-03-09T05:02:56;94530.78;;;3.22;100.00
40245;BME280;25963;42.694;23.600;2023-03-09T05:05:21;94532.34;;;3.16;100.00
40245;BME280;25963;42.694;23.600;2023-03-09T05:07:47;94532.59;;;3.22;100.00
40245;BME280;25963;42.694;23.600;2023-03-09T05:10:12;94527.63;;;3.27;100.00
40245;BME280;25963;42.694;23.600;2023-03-09T05:12:38;94532.69;;;3.35;100.00
40245;BME280;25963;42.694;23.600;2023-03-09T05:15:04;94529.34;;;3.41;100.00
40245;BME280;25963;42.694;23.600;2023-03-09T05:17:29;94531.28;;;3.54;100.00
40245;BME280;25963;42.694;23.600;2023-03-09T05:19:55;94521.97;;;3.73;100.00
40245;BME280;25963;42.694;23.600;2023-03-09T05:22:21;94518.50;;;4.00;100.00
40245;BME280;25963;42.694;23.600;2023-03-09T05:24:46;94527.53;;;4.32;100.00
40245;BME280;25963;42.694;23.600;2023-03-09T05:27:12;94532.03;;;4.52;100.00
40245;BME280;25963;42.694;23.600;2023-03-09T05:29:38;94534.03;;;4.50;100.00
40245;BME280;25963;42.694;23.600;2023-03-09T05:32:04;94530.44;;;4.57;100.00
40245;BME280;25963;42.694;23.600;2023-03-09T05:34:30;94539.28;;;4.63;100.00
40245;BME280;25963;42.694;23.600;2023-03-09T05:36:55;94537.69;;;4.62;100.00
40245;BME280;25963;42.694;23.600;2023-03-09T05:39:21;94529.69;;;4.64;100.00
40245;BME280;25963;42.694;23.600;2023-03-09T05:41:47;94551.47;;;4.91;100.00
40245;BME280;25963;42.694;23.600;2023-03-09T05:44:12;94557.97;;;5.15;100.00
40245;BME280;25963;42.694;23.600;2023-03-09T05:46:38;94567.66;;;5.47;100.00
40245;BME280;25963;42.694;23.600;2023-03-09T05:49:03;94568.88;;;5.71;97.88
40245;BME280;25963;42.694;23.600;2023-03-09T05:51:29;94559.19;;;5.92;100.00
40245;BME280;25963;42.694;23.600;2023-03-09T05:53:55;94561.25;;;5.97;100.00
40245;BME280;25963;42.694;23.600;2023-03-09T05:56:20;94549.16;;;6.02;97.83
40245;BME280;25963;42.694;23.600;2023-03-09T05:58:47;94556.41;;;6.13;95.90
40245;BME280;25963;42.694;23.600;2023-03-09T06:01:20;94560.34;;;6.43;96.59
40245;BME280;25963;42.694;23.600;2023-03-09T06:03:46;94564.81;;;6.87;96.65
40245;BME280;25963;42.694;23.600;2023-03-09T06:06:11;94570.09;;;7.57;89.13
40245;BME280;25963;42.694;23.600;2023-03-09T06:08:37;94571.38;;;7.98;84.11
40245;BME280;25963;42.694;23.600;2023-03-09T06:11:03;94577.84;;;8.20;83.05
40245;BME280;25963;42.694;23.600;2023-03-09T06:13:28;94577.28;;;8.37;80.72
40245;BME280;25963;42.694;23.600;2023-03-09T06:15:53;94574.69;;;8.55;82.14
40245;BME280;25963;42.694;23.600;2023-03-09T06:18:19;94581.41;;;8.69;86.65
40245;BME280;25963;42.694;23.600;2023-03-09T06:20:46;94578.94;;;8.75;86.54
40245;BME280;25963;42.694;23.600;2023-03-09T06:23:11;94589.69;;;8.91;83.76
40245;BME280;25963;42.694;23.600;2023-03-09T06:25:38;94584.16;;;9.11;82.66
40245;BME280;25963;42.694;23.600;2023-03-09T06:28:03;94575.50;;;9.23;83.29
40245;BME280;25963;42.694;23.600;2023-03-09T06:30:29;94574.75;;;9.34;81.24
40245;BME280;25963;42.694;23.600;2023-03-09T06:32:55;94572.53;;;9.49;81.51
40245;BME280;25963;42.694;23.600;2023-03-09T06:35:24;94580.03;;;9.76;78.68
40245;BME280;25963;42.694;23.600;2023-03-09T06:37:50;94575.00;;;9.86;75.53
40245;BME280;25963;42.694;23.600;2023-03-09T06:40:16;94582.63;;;9.64;76.25
40245;BME280;25963;42.694;23.600;2023-03-09T06:42:42;94586.59;;;8.95;81.27
40245;BME280;25963;42.694;23.600;2023-03-09T06:45:09;94585.81;;;8.32;80.45
40245;BME280;25963;42.694;23.600;2023-03-09T06:47:34;94587.94;;;8.23;81.56
40245;BME280;25963;42.694;23.600;2023-03-09T06:50:00;94576.00;;;8.64;81.20
40245;BME280;25963;42.694;23.600;2023-03-09T06:52:25;94576.28;;;8.93;83.65
40245;BME280;25963;42.694;23.600;2023-03-09T06:54:51;94568.38;;;9.11;82.36
40245;BME280;25963;42.694;23.600;2023-03-09T06:57:17;94572.63;;;9.12;78.69
40245;BME280;25963;42.694;23.600;2023-03-09T06:59:42;94577.47;;;8.60;76.05
40245;BME280;25963;42.694;23.600;2023-03-09T07:02:12;94579.66;;;8.45;78.65
40245;BME280;25963;42.694;23.600;2023-03-09T07:04:38;94579.97;;;8.74;79.44
40245;BME280;25963;42.694;23.600;2023-03-09T07:07:03;94586.31;;;8.66;79.36
40245;BME280;25963;42.694;23.600;2023-03-09T07:09:29;94565.03;;;8.49;79.23
40245;BME280;25963;42.694;23.600;2023-03-09T07:11:57;94563.44;;;8.66;78.97
40245;BME280;25963;42.694;23.600;2023-03-09T07:14:24;94572.22;;;8.60;77.17
40245;BME280;25963;42.694;23.600;2023-03-09T07:16:54;94568.19;;;8.58;76.88
40245;BME280;25963;42.694;23.600;2023-03-09T07:19:20;94553.88;;;8.72;81.46
40245;BME280;25963;42.694;23.600;2023-03-09T07:21:46;94559.97;;;9.03;78.02
40245;BME280;25963;42.694;23.600;2023-03-09T07:24:12;94563.94;;;9.24;76.87
40245;BME280;25963;42.694;23.600;2023-03-09T07:26:37;94564.59;;;9.37;76.92
40245;BME280;25963;42.694;23.600;2023-03-09T07:29:03;94566.19;;;9.38;71.00
40245;BME280;25963;42.694;23.600;2023-03-09T07:31:28;94565.09;;;9.58;74.77
40245;BME280;25963;42.694;23.600;2023-03-09T07:33:57;94567.41;;;9.78;72.63
40245;BME280;25963;42.694;23.600;2023-03-09T07:36:24;94565.41;;;10.03;70.91
40245;BME280;25963;42.694;23.600;2023-03-09T07:38:49;94568.16;;;10.09;68.74
40245;BME280;25963;42.694;23.600;2023-03-09T07:41:16;94559.94;;;10.28;71.92
40245;BME280;25963;42.694;23.600;2023-03-09T07:43:42;94562.34;;;10.42;70.00
40245;BME280;25963;42.694;23.600;2023-03-09T07:46:13;94570.25;;;10.54;65.04
40245;BME280;25963;42.694;23.600;2023-03-09T07:48:41;94548.41;;;10.70;68.67
40245;BME280;25963;42.694;23.600;2023-03-09T07:51:07;94559.28;;;10.85;69.95
40245;BME280;25963;42.694;23.600;2023-03-09T07:53:35;94569.94;;;10.90;65.61
40245;BME280;25963;42.694;23.600;2023-03-09T07:56:02;94564.38;;;11.04;66.11
40245;BME280;25963;42.694;23.600;2023-03-09T07:58:30;94560.94;;;11.03;65.13
40245;BME280;25963;42.694;23.600;2023-03-09T08:00:56;94563.19;;;11.23;69.23
40245;BME280;25963;42.694;23.600;2023-03-09T08:03:22;94555.41;;;11.45;71.20
40245;BME280;25963;42.694;23.600;2023-03-09T08:05:48;94558.44;;;11.54;64.63
40245;BME280;25963;42.694;23.600;2023-03-09T08:08:15;94555.53;;;11.67;64.95
40245;BME280;25963;42.694;23.600;2023-03-09T08:10:46;94544.53;;;11.75;65.09
40245;BME280;25963;42.694;23.600;2023-03-09T08:13:12;94550.03;;;11.85;63.81
40245;BME280;25963;42.694;23.600;2023-03-09T08:15:38;94547.06;;;11.82;61.65
40245;BME280;25963;42.694;23.600;2023-03-09T08:18:04;94543.47;;;12.05;63.63
40245;BME280;25963;42.694;23.600;2023-03-09T08:20:29;94543.38;;;12.33;69.46
40245;BME280;25963;42.694;23.600;2023-03-09T08:22:55;94558.97;;;12.52;62.20
40245;BME280;25963;42.694;23.600;2023-03-09T08:25:21;94549.56;;;12.83;68.93
40245;BME280;25963;42.694;23.600;2023-03-09T08:27:48;94544.66;;;13.14;71.88
40245;BME280;25963;42.694;23.600;2023-03-09T08:30:15;94550.84;;;13.24;61.08
40245;BME280;25963;42.694;23.600;2023-03-09T08:32:41;94537.41;;;13.53;67.83
40245;BME280;25963;42.694;23.600;2023-03-09T08:35:08;94538.91;;;13.71;64.83
40245;BME280;25963;42.694;23.600;2023-03-09T08:37:34;94541.41;;;13.88;63.09
40245;BME280;25963;42.694;23.600;2023-03-09T08:39:59;94539.31;;;13.90;56.15
40245;BME280;25963;42.694;23.600;2023-03-09T08:42:25;94522.22;;;14.08;57.84
40245;BME280;25963;42.694;23.600;2023-03-09T08:44:51;94517.13;;;14.01;53.42
40245;BME280;25963;42.694;23.600;2023-03-09T08:47:16;94510.75;;;14.02;53.03
40245;BME280;25963;42.694;23.600;2023-03-09T08:49:42;94510.06;;;14.17;53.70
40245;BME280;25963;42.694;23.600;2023-03-09T08:52:08;94510.53;;;14.09;50.46
40245;BME280;25963;42.694;23.600;2023-03-09T08:54:34;94509.59;;;14.25;53.10
40245;BME280;25963;42.694;23.600;2023-03-09T08:56:59;94509.84;;;14.24;55.44
40245;BME280;25963;42.694;23.600;2023-03-09T08:59:25;94510.00;;;14.49;52.54
40245;BME280;25963;42.694;23.600;2023-03-09T09:01:50;94508.16;;;14.50;54.60
40245;BME280;25963;42.694;23.600;2023-03-09T09:04:16;94510.66;;;14.67;56.41
40245;BME280;25963;42.694;23.600;2023-03-09T09:06:41;94505.16;;;14.83;55.07
40245;BME280;25963;42.694;23.600;2023-03-09T09:09:08;94506.88;;;14.52;50.53
40245;BME280;25963;42.694;23.600;2023-03-09T09:11:33;94492.91;;;14.77;54.40
40245;BME280;25963;42.694;23.600;2023-03-09T09:13:59;94493.78;;;14.98;52.60
40245;BME280;25963;42.694;23.600;2023-03-09T09:16:24;94482.22;;;15.35;56.16
40245;BME280;25963;42.694;23.600;2023-03-09T09:18:53;94475.63;;;15.89;57.80
40245;BME280;25963;42.694;23.600;2023-03-09T09:21:18;94468.44;;;15.84;54.36
40245;BME280;25963;42.694;23.600;2023-03-09T09:23:45;94467.84;;;15.26;47.12
40245;BME280;25963;42.694;23.600;2023-03-09T09:26:11;94459.34;;;15.55;51.86
40245;BME280;25963;42.694;23.600;2023-03-09T09:28:37;94459.09;;;15.51;48.74
40245;BME280;25963;42.694;23.600;2023-03-09T09:31:04;94454.03;;;15.39;50.57
40245;BME280;25963;42.694;23.600;2023-03-09T09:33:32;94446.06;;;15.44;55.30
40245;BME280;25963;42.694;23.600;2023-03-09T09:35:59;94449.53;;;15.60;49.28
40245;BME280;25963;42.694;23.600;2023-03-09T09:38:27;94445.03;;;15.86;51.56
40245;BME280;25963;42.694;23.600;2023-03-09T09:40:55;94439.69;;;15.96;49.69
40245;BME280;25963;42.694;23.600;2023-03-09T09:43:22;94437.03;;;15.96;51.48
40245;BME280;25963;42.694;23.600;2023-03-09T09:45:50;94430.59;;;16.23;50.54
40245;BME280;25963;42.694;23.600;2023-03-09T09:48:17;94434.84;;;16.34;52.27
40245;BME280;25963;42.694;23.600;2023-03-09T09:56:24;94437.13;;;16.66;52.76
40245;BME280;25963;42.694;23.600;2023-03-09T09:59:05;94434.97;;;16.69;51.23
40245;BME280;25963;42.694;23.600;2023-03-09T10:01:45;94440.34;;;16.58;49.15
40245;BME280;25963;42.694;23.600;2023-03-09T10:04:19;94432.03;;;16.70;54.35
40245;BME280;25963;42.694;23.600;2023-03-09T10:06:46;94427.75;;;16.74;53.75
40245;BME280;25963;42.694;23.600;2023-03-09T10:09:22;94417.94;;;16.70;51.13
40245;BME280;25963;42.694;23.600;2023-03-09T10:11:58;94402.16;;;16.83;54.64
40245;BME280;25963;42.694;23.600;2023-03-09T10:14:40;94402.50;;;17.16;54.95
40245;BME280;25963;42.694;23.600;2023-03-09T10:19:51;94386.28;;;17.47;48.20
40245;BME280;25963;42.694;23.600;2023-03-09T10:22:23;94380.91;;;17.57;47.33
40245;BME280;25963;42.694;23.600;2023-03-09T10:24:54;94370.56;;;17.50;46.67
40245;BME280;25963;42.694;23.600;2023-03-09T10:38:29;94342.31;;;17.78;43.03
40245;BME280;25963;42.694;23.600;2023-03-09T10:40:57;94342.63;;;18.01;44.84
40245;BME280;25963;42.694;23.600;2023-03-09T10:43:36;94346.09;;;17.72;41.75
40245;BME280;25963;42.694;23.600;2023-03-09T10:46:14;94350.50;;;17.87;44.06
40245;BME280;25963;42.694;23.600;2023-03-09T10:48:41;94349.38;;;17.93;42.73
40245;BME280;25963;42.694;23.600;2023-03-09T10:51:27;94331.31;;;17.85;44.49
40245;BME280;25963;42.694;23.600;2023-03-09T10:53:54;94333.22;;;17.50;43.88
40245;BME280;25963;42.694;23.600;2023-03-09T10:56:22;94339.03;;;17.87;44.59
40245;BME280;25963;42.694;23.600;2023-03-09T11:01:38;94307.06;;;18.48;44.57
40245;BME280;25963;42.694;23.600;2023-03-09T11:04:34;94308.84;;;18.58;42.90
40245;BME280;25963;42.694;23.600;2023-03-09T11:07:16;94294.38;;;18.59;46.82
40245;BME280;25963;42.694;23.600;2023-03-09T11:14:49;94290.41;;;18.57;48.25
40245;BME280;25963;42.694;23.600;2023-03-09T11:17:38;94295.72;;;18.81;41.90
40245;BME280;25963;42.694;23.600;2023-03-09T11:20:27;94273.69;;;18.89;43.85
40245;BME280;25963;42.694;23.600;2023-03-09T11:28:26;94274.28;;;19.19;41.93
40245;BME280;25963;42.694;23.600;2023-03-09T11:30:55;94266.78;;;19.21;41.70
40245;BME280;25963;42.694;23.600;2023-03-09T11:33:21;94259.75;;;19.25;42.81
40245;BME280;25963;42.694;23.600;2023-03-09T11:35:51;94256.13;;;19.48;40.95
40245;BME280;25963;42.694;23.600;2023-03-09T11:38:18;94252.06;;;19.37;39.40
40245;BME280;25963;42.694;23.600;2023-03-09T11:40:50;94255.25;;;19.06;39.95
40245;BME280;25963;42.694;23.600;2023-03-09T11:43:24;94250.38;;;19.41;44.17
40245;BME280;25963;42.694;23.600;2023-03-09T11:46:01;94246.63;;;19.42;41.67
40245;BME280;25963;42.694;23.600;2023-03-09T11:48:34;94245.03;;;19.55;41.12
40245;BME280;25963;42.694;23.600;2023-03-09T11:51:08;94237.88;;;19.69;42.96
40245;BME280;25963;42.694;23.600;2023-03-09T11:56:22;94219.03;;;20.02;40.56
40245;BME280;25963;42.694;23.600;2023-03-09T11:58:58;94204.63;;;20.12;39.87
40245;BME280;25963;42.694;23.600;2023-03-09T12:04:05;94186.59;;;20.03;40.41
40245;BME280;25963;42.694;23.600;2023-03-09T12:06:56;94188.38;;;19.94;41.38
40245;BME280;25963;42.694;23.600;2023-03-09T12:09:33;94173.78;;;20.14;40.32
40245;BME280;25963;42.694;23.600;2023-03-09T12:12:16;94168.34;;;20.42;43.27
40245;BME280;25963;42.694;23.600;2023-03-09T12:14:51;94160.47;;;20.23;36.61
40245;BME280;25963;42.694;23.600;2023-03-09T12:17:40;94156.03;;;20.77;37.53
40245;BME280;25963;42.694;23.600;2023-03-09T12:20:24;94163.78;;;20.42;37.05
40245;BME280;25963;42.694;23.600;2023-03-09T12:22:50;94146.50;;;20.26;40.78
40245;BME280;25963;42.694;23.600;2023-03-09T12:25:21;94158.03;;;20.71;39.00
40245;BME280;25963;42.694;23.600;2023-03-09T12:28:14;94147.25;;;20.85;37.65
40245;BME280;25963;42.694;23.600;2023-03-09T12:30:51;94134.63;;;21.39;37.37
40245;BME280;25963;42.694;23.600;2023-03-09T12:36:28;94122.38;;;20.93;38.65
40245;BME280;25963;42.694;23.600;2023-03-09T12:49:48;94147.38;;;19.44;38.82
40245;BME280;25963;42.694;23.600;2023-03-09T12:55:25;94131.19;;;18.93;37.85
40245;BME280;25963;42.694;23.600;2023-03-09T13:00:59;94134.59;;;19.54;39.41
40245;BME280;25963;42.694;23.600;2023-03-09T13:06:33;94133.59;;;19.50;39.73
40245;BME280;25963;42.694;23.600;2023-03-09T13:09:05;94134.91;;;19.39;40.28
40245;BME280;25963;42.694;23.600;2023-03-09T13:11:34;94132.59;;;19.32;39.32
40245;BME280;25963;42.694;23.600;2023-03-09T13:24:18;94117.19;;;18.50;41.24
40245;BME280;25963;42.694;23.600;2023-03-09T13:26:47;94115.75;;;18.25;41.51
40245;BME280;25963;42.694;23.600;2023-03-09T13:29:24;94090.72;;;18.02;42.16
40245;BME280;25963;42.694;23.600;2023-03-09T13:31:52;94101.63;;;17.87;43.14
40245;BME280;25963;42.694;23.600;2023-03-09T13:34:27;94103.56;;;17.81;42.61
40245;BME280;25963;42.694;23.600;2023-03-09T13:36:57;94110.94;;;17.65;43.27
40245;BME280;25963;42.694;23.600;2023-03-09T13:39:26;94107.34;;;17.56;43.72
40245;BME280;25963;42.694;23.600;2023-03-09T13:41:52;94115.09;;;17.52;44.14
40245;BME280;25963;42.694;23.600;2023-03-09T13:44:23;94113.72;;;17.55;44.30
40245;BME280;25963;42.694;23.600;2023-03-09T13:46:52;94105.09;;;17.63;43.48
40245;BME280;25963;42.694;23.600;2023-03-09T13:49:28;94103.13;;;17.93;43.27
40245;BME280;25963;42.694;23.600;2023-03-09T13:51:56;94107.44;;;18.59;43.07
40245;BME280;25963;42.694;23.600;2023-03-09T13:59:56;94098.34;;;19.07;41.23
40245;BME280;25963;42.694;23.600;2023-03-09T14:02:28;94092.47;;;18.77;40.85
40245;BME280;25963;42.694;23.600;2023-03-09T14:07:27;94097.53;;;18.92;41.96
40245;BME280;25963;42.694;23.600;2023-03-09T14:09:57;94097.16;;;19.41;41.98
40245;BME280;25963;42.694;23.600;2023-03-09T14:12:36;94097.97;;;19.69;41.12
40245;BME280;25963;42.694;23.600;2023-03-09T14:15:04;94096.16;;;19.78;41.61
40245;BME280;25963;42.694;23.600;2023-03-09T14:17:32;94101.03;;;19.48;39.88
40245;BME280;25963;42.694;23.600;2023-03-09T14:19:59;94115.38;;;19.11;41.10
40245;BME280;25963;42.694;23.600;2023-03-09T14:22:29;94112.28;;;18.90;40.58
40245;BME280;25963;42.694;23.600;2023-03-09T14:24:57;94125.47;;;18.67;41.73
40245;BME280;25963;42.694;23.600;2023-03-09T14:27:31;94116.75;;;18.62;41.80
40245;BME280;25963;42.694;23.600;2023-03-09T14:33:28;94119.53;;;18.38;41.57